Terminal Aerodrome Forecast
Issued by NWS

Home | Current Version | Previous Version | Text Only | Print | Product List | Glossary On
Versions: 1 2 3 4 5 6 7 8 9 10 11 12 13 14 15 16 17 18
000
FTUS43 KIND 140500
TAFLAF
TAF
KLAF 140525Z 1406/1506 00000KT P6SM SCT050 BKN100
      TEMPO 1409/1413 3SM BR
     FM141400 29009KT P6SM VCTS BKN035CB
     FM150200 31009KT P6SM BKN035
      AMD LTD TO CLD VIS AND WIND TIL 141300=

USA.gov is the U.S. government's official web portal to all federal, state and local government web resources and services.